Kenneth Carl — WDF8246 — position and weather

sailwx.info

Track history (hours):
 
Tides and Currents Weather Stations Pressure Air Temp Water Temp Dewpoint Dewpoint Depression Visibility Wind Speed Wind Dir Waves Ship Positions

Kenneth Carl

Owner: So. Cal. Ship Services, Inc., San Pedro, CA. More information available from US FCC via Universal Licensing System and Coast Guard Vessel Documentation Center.

Last reported at 2015-Apr-01 20:30 UTC. Time now 2015-Apr-01 22:32 UTC.
Position N 33°44' W 118°16'.

Length 31 m; draft 3 m.

Type: Ship. MMSI: 367492920.

Date/timePositionNaut miles runAvg speedWind from/ knotsBaromVisibWave heightAir tempDewpointWater temp
2015-Apr-01 20:30N 33°44' W 118°16'0 0.0
2015-Apr-01 19:17N 33°44' W 118°16'0 0.0
2015-Apr-01 06:14N 33°44' W 118°16'6 8.7
2015-Apr-01 05:31N 33°39' W 118°12'5 5.5
2015-Apr-01 04:33N 33°35' W 118°08'0 0.0
2015-Apr-01 03:33N 33°35' W 118°08'0 0.1
2015-Apr-01 02:29N 33°35' W 118°08'910.0
2015-Apr-01 01:33N 33°42' W 118°15'2 2.4
2015-Apr-01 00:33N 33°44' W 118°16'0 0.0
2015-Mar-31 23:33N 33°44' W 118°16'0 0.0
2015-Mar-31 22:33N 33°44' W 118°16'9 8.7
2015-Mar-31 21:33N 33°37' W 118°10'3 2.5
2015-Mar-31 20:17N 33°35' W 118°07'0 0.3
2015-Mar-31 19:32N 33°35' W 118°08'0 0.0
2015-Mar-31 18:32N 33°35' W 118°08'0 0.0
2015-Mar-31 17:33N 33°35' W 118°08'4 4.5
2015-Mar-31 16:33N 33°38' W 118°11'7 7.3
2015-Mar-31 15:33N 33°44' W 118°16'0 0.0
2015-Mar-31 14:15N 33°44' W 118°16'0 0.0
2015-Mar-31 13:30N 33°44' W 118°16'0 0.0
2015-Mar-31 12:23N 33°44' W 118°16'3 3.1
2015-Mar-31 11:33N 33°42' W 118°14'9 9.2
2015-Mar-31 10:33N 33°35' W 118°08'0 0.1
2015-Mar-31 09:33N 33°35' W 118°08'0 0.1
2015-Mar-31 08:33N 33°35' W 118°08'0 0.0
2015-Mar-31 07:33N 33°35' W 118°08'0 0.0
2015-Mar-31 06:33N 33°35' W 118°08'2 1.9
2015-Mar-31 05:33N 33°37' W 118°09'10 9.8
2015-Mar-31 04:33N 33°44' W 118°16'0 0.0
2015-Mar-31 03:33N 33°44' W 118°16'0 0.0
2015-Mar-31 02:33N 33°44' W 118°16'0 0.0
2015-Mar-31 01:33N 33°44' W 118°16'0 0.0
2015-Mar-31 00:33N 33°44' W 118°16'0 0.0
2015-Mar-30 23:33N 33°44' W 118°16'0 0.0
2015-Mar-30 22:33N 33°44' W 118°16'0 0.0
2015-Mar-30 21:33N 33°44' W 118°16'0 0.0
2015-Mar-30 20:33N 33°44' W 118°16'0 0.0
2015-Mar-30 19:33N 33°44' W 118°16'0 0.0
2015-Mar-30 18:32N 33°44' W 118°16'0 0.0
2015-Mar-30 17:33N 33°44' W 118°16'0 0.0
2015-Mar-30 16:33N 33°44' W 118°16'0 0.0
2015-Mar-30 15:33N 33°44' W 118°16'0 0.0
2015-Mar-30 14:22N 33°44' W 118°16'0 0.0
2015-Mar-30 13:33N 33°44' W 118°16'0 0.0
2015-Mar-30 11:32N 33°44' W 118°16'0 0.0
2015-Mar-30 10:33N 33°44' W 118°16'0 0.0
2015-Mar-30 09:30N 33°44' W 118°16'0 0.0
2015-Mar-30 07:33N 33°44' W 118°16'0 0.0
2015-Mar-30 06:32N 33°44' W 118°16'0 0.0
2015-Mar-30 05:33N 33°44' W 118°16'0 0.0
2015-Mar-30 04:33N 33°44' W 118°16'0 0.0
2015-Mar-30 03:33N 33°44' W 118°16'0 0.0
2015-Mar-30 02:33N 33°44' W 118°16'0 0.0
2015-Mar-30 01:33N 33°44' W 118°16'0 0.0
2015-Mar-30 00:33N 33°44' W 118°16'0 0.0
2015-Mar-29 23:33N 33°44' W 118°16'0 0.0
2015-Mar-29 22:33N 33°44' W 118°16'0 0.0
2015-Mar-29 21:33N 33°44' W 118°16'0 0.0
2015-Mar-29 20:33N 33°44' W 118°16'2 1.9
2015-Mar-29 19:33N 33°43' W 118°14'2 1.8
2015-Mar-29 18:30N 33°44' W 118°16'0 0.0
2015-Mar-29 17:12N 33°44' W 118°16'0 0.0
2015-Mar-29 14:30N 33°44' W 118°16'0 0.0
2015-Mar-29 13:24N 33°44' W 118°16'0 0.0
2015-Mar-29 10:21N 33°44' W 118°16'0 0.0
2015-Mar-29 09:30N 33°44' W 118°16'0 0.0
2015-Mar-29 08:33N 33°44' W 118°16'0 0.0
2015-Mar-29 07:24N 33°44' W 118°16'0 0.0
2015-Mar-29 05:30N 33°44' W 118°16'0 0.0
2015-Mar-29 04:30N 33°44' W 118°16'0 0.0
2015-Mar-29 03:30N 33°44' W 118°16'0 0.0
2015-Mar-29 02:31N 33°44' W 118°16'0 0.0
2015-Mar-29 01:28N 33°44' W 118°16'0 0.0
2015-Mar-29 00:28N 33°44' W 118°16'0 0.0
2015-Mar-28 23:31N 33°44' W 118°16'0 0.0
2015-Mar-28 22:25N 33°44' W 118°16'0 0.0
2015-Mar-28 21:34N 33°44' W 118°16'0 0.0
2015-Mar-28 20:16N 33°44' W 118°16'0 0.0
2015-Mar-28 19:31N 33°44' W 118°16'0 0.0
2015-Mar-28 15:28N 33°44' W 118°16'0 0.0
2015-Mar-28 14:31N 33°44' W 118°16'0 0.0
2015-Mar-28 13:31N 33°44' W 118°16'0 0.0
2015-Mar-28 12:31N 33°44' W 118°16'0 0.0
2015-Mar-28 11:25N 33°44' W 118°16'0 0.0
2015-Mar-28 10:28N 33°44' W 118°16'0 0.0
2015-Mar-28 09:31N 33°44' W 118°16'0 0.0
2015-Mar-28 08:28N 33°44' W 118°16'0 0.0
2015-Mar-28 07:34N 33°44' W 118°16'0 0.0
2015-Mar-28 06:31N 33°44' W 118°16'0 0.0
2015-Mar-28 05:34N 33°44' W 118°16'0 0.0
2015-Mar-28 04:34N 33°44' W 118°16'0 0.0
2015-Mar-28 03:31N 33°44' W 118°16'0 0.0
2015-Mar-28 02:33N 33°44' W 118°16'0 0.0
2015-Mar-28 01:34N 33°44' W 118°16'0 0.0
2015-Mar-28 00:34N 33°44' W 118°16'0 0.0
2015-Mar-27 23:34N 33°44' W 118°16'0 0.0
2015-Mar-27 22:33N 33°44' W 118°16'0 0.0
2015-Mar-27 21:34N 33°44' W 118°16'0 0.0
2015-Mar-27 20:33N 33°44' W 118°16'0 0.0
2015-Mar-27 19:33N 33°44' W 118°16'0 0.0
2015-Mar-27 18:34N 33°44' W 118°16'0 0.0
2015-Mar-27 17:33N 33°44' W 118°16'0 0.0
2015-Mar-27 16:33N 33°44' W 118°16'0 0.0
2015-Mar-27 15:33N 33°44' W 118°16'0 0.0
2015-Mar-27 14:32N 33°44' W 118°16'0 0.0
2015-Mar-27 13:08N 33°44' W 118°16'0 0.0
2015-Mar-27 12:34N 33°44' W 118°16'0 0.0
2015-Mar-27 11:33N 33°44' W 118°16'0 0.0
2015-Mar-27 10:33N 33°44' W 118°16'0 0.0
2015-Mar-27 09:33N 33°44' W 118°16'0 0.0
2015-Mar-27 08:33N 33°44' W 118°16'4 2.1
2015-Mar-27 06:32N 33°41' W 118°13'7 7.7
2015-Mar-27 05:33N 33°35' W 118°08'3 3.2
2015-Mar-27 04:33N 33°37' W 118°10'8 8.5
2015-Mar-27 03:34N 33°44' W 118°16'0 0.0
2015-Mar-27 02:34N 33°44' W 118°16'0 0.0
2015-Mar-27 01:34N 33°44' W 118°16'0 0.0
2015-Mar-27 00:31N 33°44' W 118°16'0 0.0
2015-Mar-26 23:26N 33°44' W 118°16'0 0.0
2015-Mar-26 22:32N 33°44' W 118°16'0 0.0
2015-Mar-26 21:03N 33°44' W 118°16'0 0.0
2015-Mar-26 20:33N 33°44' W 118°16'2 1.9
2015-Mar-26 19:32N 33°43' W 118°15'10 9.9
2015-Mar-26 18:33N 33°35' W 118°08'0 0.0
2015-Mar-26 17:34N 33°35' W 118°08'0 0.0
2015-Mar-26 16:33N 33°35' W 118°08'0 0.2
2015-Mar-26 15:33N 33°35' W 118°08'0 0.0
2015-Mar-26 14:33N 33°35' W 118°08'2 2.3
2015-Mar-26 13:34N 33°37' W 118°09'9 9.5
2015-Mar-26 12:33N 33°44' W 118°16'0 0.0
2015-Mar-26 11:33N 33°44' W 118°16'0 0.0
2015-Mar-26 10:33N 33°44' W 118°16'0 0.0
2015-Mar-26 09:30N 33°44' W 118°16'0 0.0
2015-Mar-26 08:33N 33°44' W 118°16'0 0.0
2015-Mar-26 07:27N 33°44' W 118°16'0 0.0
2015-Mar-26 06:33N 33°44' W 118°16'0 0.0
2015-Mar-26 05:33N 33°44' W 118°16'2 1.6
2015-Mar-26 04:27N 33°43' W 118°15'910.1
2015-Mar-26 03:33N 33°36' W 118°08'1 0.8
2015-Mar-26 02:33N 33°35' W 118°08'1010.0
2015-Mar-26 01:33N 33°43' W 118°15'2 1.6
2015-Mar-26 00:33N 33°44' W 118°16'0 0.0
2015-Mar-25 23:33N 33°44' W 118°16'0 0.0
2015-Mar-25 22:33N 33°44' W 118°16'0 0.0
2015-Mar-25 21:33N 33°44' W 118°16'0 0.0
2015-Mar-25 20:34N 33°44' W 118°16'3 3.1
2015-Mar-25 19:33N 33°42' W 118°14'9 8.4
2015-Mar-25 18:33N 33°35' W 118°08'0 0.0
2015-Mar-25 17:33N 33°35' W 118°08'0 0.0
2015-Mar-25 16:34N 33°35' W 118°08'0 0.0
2015-Mar-25 15:33N 33°35' W 118°08'0 0.0
2015-Mar-25 14:33N 33°35' W 118°08'1 1.2
2015-Mar-25 13:33N 33°34' W 118°07'10 9.6
2015-Mar-25 12:33N 33°41' W 118°14'3 1.5
2015-Mar-25 10:27N 33°44' W 118°16'0 0.0
2015-Mar-25 09:33N 33°44' W 118°16'0 0.0
2015-Mar-25 08:33N 33°44' W 118°16'0 0.0
2015-Mar-25 07:33N 33°44' W 118°16'0 0.0
2015-Mar-25 06:33N 33°44' W 118°16'0 0.0
2015-Mar-25 05:21N 33°44' W 118°16'0 0.0
2015-Mar-25 04:33N 33°44' W 118°16'0 0.0
2015-Mar-25 03:33N 33°44' W 118°16'0 0.0
2015-Mar-25 02:31N 33°44' W 118°16'0 0.0
2015-Mar-25 01:33N 33°44' W 118°16'0 0.2
2015-Mar-24 23:25N 33°44' W 118°16'0 0.0
2015-Mar-24 08:16N 33°44' W 118°16'12 6.6
2015-Mar-24 06:31N 33°35' W 118°08'0 0.2
2015-Mar-24 05:33N 33°35' W 118°08'0 0.0
2015-Mar-24 04:33N 33°35' W 118°08'0 0.2
2015-Mar-24 03:33N 33°35' W 118°08'0 0.2
2015-Mar-24 02:33N 33°35' W 118°08'6 4.5
2015-Mar-24 01:16N 33°40' W 118°11'7 1.4
2015-Mar-23 20:19N 33°34' W 118°07'1 0.1
2015-Mar-23 03:13N 33°35' W 118°08'11 6.1
2015-Mar-23 01:22N 33°44' W 118°16'3 1.6
2015-Mar-22 23:33N 33°42' W 118°14'8 8.3
2015-Mar-22 22:33N 33°35' W 118°08'0 0.0
2015-Mar-22 21:21N 33°35' W 118°08'  
Track history (hours):
 
Tides and Currents Weather Stations Pressure Air Temp Water Temp Dewpoint Dewpoint Depression Visibility Wind Speed Wind Dir Waves Ship Positions

Kenneth Carl

Owner: So. Cal. Ship Services, Inc., San Pedro, CA. More information available from US FCC via Universal Licensing System and Coast Guard Vessel Documentation Center.

Last reported at 2015-Apr-01 20:30 UTC. Time now 2015-Apr-01 22:32 UTC.
Position N 33°44' W 118°16'.

Length 31 m; draft 3 m.

Type: Ship. MMSI: 367492920.

Date/timePositionNaut miles runAvg speedWind from/ knotsBaromVisibWave heightAir tempDewpointWater temp
2015-Apr-01 20:30N 33°44' W 118°16'0 0.0
2015-Apr-01 19:17N 33°44' W 118°16'0 0.0
2015-Apr-01 06:14N 33°44' W 118°16'6 8.7
2015-Apr-01 05:31N 33°39' W 118°12'5 5.5
2015-Apr-01 04:33N 33°35' W 118°08'0 0.0
2015-Apr-01 03:33N 33°35' W 118°08'0 0.1
2015-Apr-01 02:29N 33°35' W 118°08'910.0
2015-Apr-01 01:33N 33°42' W 118°15'2 2.4
2015-Apr-01 00:33N 33°44' W 118°16'0 0.0
2015-Mar-31 23:33N 33°44' W 118°16'0 0.0
2015-Mar-31 22:33N 33°44' W 118°16'9 8.7
2015-Mar-31 21:33N 33°37' W 118°10'3 2.5
2015-Mar-31 20:17N 33°35' W 118°07'0 0.3
2015-Mar-31 19:32N 33°35' W 118°08'0 0.0
2015-Mar-31 18:32N 33°35' W 118°08'0 0.0
2015-Mar-31 17:33N 33°35' W 118°08'4 4.5
2015-Mar-31 16:33N 33°38' W 118°11'7 7.3
2015-Mar-31 15:33N 33°44' W 118°16'0 0.0
2015-Mar-31 14:15N 33°44' W 118°16'0 0.0
2015-Mar-31 13:30N 33°44' W 118°16'0 0.0
2015-Mar-31 12:23N 33°44' W 118°16'3 3.1
2015-Mar-31 11:33N 33°42' W 118°14'9 9.2
2015-Mar-31 10:33N 33°35' W 118°08'0 0.1
2015-Mar-31 09:33N 33°35' W 118°08'0 0.1
2015-Mar-31 08:33N 33°35' W 118°08'0 0.0
2015-Mar-31 07:33N 33°35' W 118°08'0 0.0
2015-Mar-31 06:33N 33°35' W 118°08'2 1.9
2015-Mar-31 05:33N 33°37' W 118°09'10 9.8
2015-Mar-31 04:33N 33°44' W 118°16'0 0.0
2015-Mar-31 03:33N 33°44' W 118°16'0 0.0
2015-Mar-31 02:33N 33°44' W 118°16'0 0.0
2015-Mar-31 01:33N 33°44' W 118°16'0 0.0
2015-Mar-31 00:33N 33°44' W 118°16'0 0.0
2015-Mar-30 23:33N 33°44' W 118°16'0 0.0
2015-Mar-30 22:33N 33°44' W 118°16'0 0.0
2015-Mar-30 21:33N 33°44' W 118°16'0 0.0
2015-Mar-30 20:33N 33°44' W 118°16'0 0.0
2015-Mar-30 19:33N 33°44' W 118°16'0 0.0
2015-Mar-30 18:32N 33°44' W 118°16'0 0.0
2015-Mar-30 17:33N 33°44' W 118°16'0 0.0
2015-Mar-30 16:33N 33°44' W 118°16'0 0.0
2015-Mar-30 15:33N 33°44' W 118°16'0 0.0
2015-Mar-30 14:22N 33°44' W 118°16'0 0.0
2015-Mar-30 13:33N 33°44' W 118°16'0 0.0
2015-Mar-30 11:32N 33°44' W 118°16'0 0.0
2015-Mar-30 10:33N 33°44' W 118°16'0 0.0
2015-Mar-30 09:30N 33°44' W 118°16'0 0.0
2015-Mar-30 07:33N 33°44' W 118°16'0 0.0
2015-Mar-30 06:32N 33°44' W 118°16'0 0.0
2015-Mar-30 05:33N 33°44' W 118°16'0 0.0
2015-Mar-30 04:33N 33°44' W 118°16'0 0.0
2015-Mar-30 03:33N 33°44' W 118°16'0 0.0
2015-Mar-30 02:33N 33°44' W 118°16'0 0.0
2015-Mar-30 01:33N 33°44' W 118°16'0 0.0
2015-Mar-30 00:33N 33°44' W 118°16'0 0.0
2015-Mar-29 23:33N 33°44' W 118°16'0 0.0
2015-Mar-29 22:33N 33°44' W 118°16'0 0.0
2015-Mar-29 21:33N 33°44' W 118°16'0 0.0
2015-Mar-29 20:33N 33°44' W 118°16'2 1.9
2015-Mar-29 19:33N 33°43' W 118°14'2 1.8
2015-Mar-29 18:30N 33°44' W 118°16'0 0.0
2015-Mar-29 17:12N 33°44' W 118°16'0 0.0
2015-Mar-29 14:30N 33°44' W 118°16'0 0.0
2015-Mar-29 13:24N 33°44' W 118°16'0 0.0
2015-Mar-29 10:21N 33°44' W 118°16'0 0.0
2015-Mar-29 09:30N 33°44' W 118°16'0 0.0
2015-Mar-29 08:33N 33°44' W 118°16'0 0.0
2015-Mar-29 07:24N 33°44' W 118°16'0 0.0
2015-Mar-29 05:30N 33°44' W 118°16'0 0.0
2015-Mar-29 04:30N 33°44' W 118°16'0 0.0
2015-Mar-29 03:30N 33°44' W 118°16'0 0.0
2015-Mar-29 02:31N 33°44' W 118°16'0 0.0
2015-Mar-29 01:28N 33°44' W 118°16'0 0.0
2015-Mar-29 00:28N 33°44' W 118°16'0 0.0
2015-Mar-28 23:31N 33°44' W 118°16'0 0.0
2015-Mar-28 22:25N 33°44' W 118°16'0 0.0
2015-Mar-28 21:34N 33°44' W 118°16'0 0.0
2015-Mar-28 20:16N 33°44' W 118°16'0 0.0
2015-Mar-28 19:31N 33°44' W 118°16'0 0.0
2015-Mar-28 15:28N 33°44' W 118°16'0 0.0
2015-Mar-28 14:31N 33°44' W 118°16'0 0.0
2015-Mar-28 13:31N 33°44' W 118°16'0 0.0
2015-Mar-28 12:31N 33°44' W 118°16'0 0.0
2015-Mar-28 11:25N 33°44' W 118°16'0 0.0
2015-Mar-28 10:28N 33°44' W 118°16'0 0.0
2015-Mar-28 09:31N 33°44' W 118°16'0 0.0
2015-Mar-28 08:28N 33°44' W 118°16'0 0.0
2015-Mar-28 07:34N 33°44' W 118°16'0 0.0
2015-Mar-28 06:31N 33°44' W 118°16'0 0.0
2015-Mar-28 05:34N 33°44' W 118°16'0 0.0
2015-Mar-28 04:34N 33°44' W 118°16'0 0.0
2015-Mar-28 03:31N 33°44' W 118°16'0 0.0
2015-Mar-28 02:33N 33°44' W 118°16'0 0.0
2015-Mar-28 01:34N 33°44' W 118°16'0 0.0
2015-Mar-28 00:34N 33°44' W 118°16'0 0.0
2015-Mar-27 23:34N 33°44' W 118°16'0 0.0
2015-Mar-27 22:33N 33°44' W 118°16'0 0.0
2015-Mar-27 21:34N 33°44' W 118°16'0 0.0
2015-Mar-27 20:33N 33°44' W 118°16'0 0.0
2015-Mar-27 19:33N 33°44' W 118°16'0 0.0
2015-Mar-27 18:34N 33°44' W 118°16'0 0.0
2015-Mar-27 17:33N 33°44' W 118°16'0 0.0
2015-Mar-27 16:33N 33°44' W 118°16'0 0.0
2015-Mar-27 15:33N 33°44' W 118°16'0 0.0
2015-Mar-27 14:32N 33°44' W 118°16'0 0.0
2015-Mar-27 13:08N 33°44' W 118°16'0 0.0
2015-Mar-27 12:34N 33°44' W 118°16'0 0.0
2015-Mar-27 11:33N 33°44' W 118°16'0 0.0
2015-Mar-27 10:33N 33°44' W 118°16'0 0.0
2015-Mar-27 09:33N 33°44' W 118°16'0 0.0
2015-Mar-27 08:33N 33°44' W 118°16'4 2.1
2015-Mar-27 06:32N 33°41' W 118°13'7 7.7
2015-Mar-27 05:33N 33°35' W 118°08'3 3.2
2015-Mar-27 04:33N 33°37' W 118°10'8 8.5
2015-Mar-27 03:34N 33°44' W 118°16'0 0.0
2015-Mar-27 02:34N 33°44' W 118°16'0 0.0
2015-Mar-27 01:34N 33°44' W 118°16'0 0.0
2015-Mar-27 00:31N 33°44' W 118°16'0 0.0
2015-Mar-26 23:26N 33°44' W 118°16'0 0.0
2015-Mar-26 22:32N 33°44' W 118°16'0 0.0
2015-Mar-26 21:03N 33°44' W 118°16'0 0.0
2015-Mar-26 20:33N 33°44' W 118°16'2 1.9
2015-Mar-26 19:32N 33°43' W 118°15'10 9.9
2015-Mar-26 18:33N 33°35' W 118°08'0 0.0
2015-Mar-26 17:34N 33°35' W 118°08'0 0.0
2015-Mar-26 16:33N 33°35' W 118°08'0 0.2
2015-Mar-26 15:33N 33°35' W 118°08'0 0.0
2015-Mar-26 14:33N 33°35' W 118°08'2 2.3
2015-Mar-26 13:34N 33°37' W 118°09'9 9.5
2015-Mar-26 12:33N 33°44' W 118°16'0 0.0
2015-Mar-26 11:33N 33°44' W 118°16'0 0.0
2015-Mar-26 10:33N 33°44' W 118°16'0 0.0
2015-Mar-26 09:30N 33°44' W 118°16'0 0.0
2015-Mar-26 08:33N 33°44' W 118°16'0 0.0
2015-Mar-26 07:27N 33°44' W 118°16'0 0.0
2015-Mar-26 06:33N 33°44' W 118°16'0 0.0
2015-Mar-26 05:33N 33°44' W 118°16'2 1.6
2015-Mar-26 04:27N 33°43' W 118°15'910.1
2015-Mar-26 03:33N 33°36' W 118°08'1 0.8
2015-Mar-26 02:33N 33°35' W 118°08'1010.0
2015-Mar-26 01:33N 33°43' W 118°15'2 1.6
2015-Mar-26 00:33N 33°44' W 118°16'0 0.0
2015-Mar-25 23:33N 33°44' W 118°16'0 0.0
2015-Mar-25 22:33N 33°44' W 118°16'0 0.0
2015-Mar-25 21:33N 33°44' W 118°16'0 0.0
2015-Mar-25 20:34N 33°44' W 118°16'3 3.1
2015-Mar-25 19:33N 33°42' W 118°14'9 8.4
2015-Mar-25 18:33N 33°35' W 118°08'0 0.0
2015-Mar-25 17:33N 33°35' W 118°08'0 0.0
2015-Mar-25 16:34N 33°35' W 118°08'0 0.0
2015-Mar-25 15:33N 33°35' W 118°08'0 0.0
2015-Mar-25 14:33N 33°35' W 118°08'1 1.2
2015-Mar-25 13:33N 33°34' W 118°07'10 9.6
2015-Mar-25 12:33N 33°41' W 118°14'3 1.5
2015-Mar-25 10:27N 33°44' W 118°16'0 0.0
2015-Mar-25 09:33N 33°44' W 118°16'0 0.0
2015-Mar-25 08:33N 33°44' W 118°16'0 0.0
2015-Mar-25 07:33N 33°44' W 118°16'0 0.0
2015-Mar-25 06:33N 33°44' W 118°16'0 0.0
2015-Mar-25 05:21N 33°44' W 118°16'0 0.0
2015-Mar-25 04:33N 33°44' W 118°16'0 0.0
2015-Mar-25 03:33N 33°44' W 118°16'0 0.0
2015-Mar-25 02:31N 33°44' W 118°16'0 0.0
2015-Mar-25 01:33N 33°44' W 118°16'0 0.2
2015-Mar-24 23:25N 33°44' W 118°16'0 0.0
2015-Mar-24 08:16N 33°44' W 118°16'12 6.6
2015-Mar-24 06:31N 33°35' W 118°08'0 0.2
2015-Mar-24 05:33N 33°35' W 118°08'0 0.0
2015-Mar-24 04:33N 33°35' W 118°08'0 0.2
2015-Mar-24 03:33N 33°35' W 118°08'0 0.2
2015-Mar-24 02:33N 33°35' W 118°08'6 4.5
2015-Mar-24 01:16N 33°40' W 118°11'7 1.4
2015-Mar-23 20:19N 33°34' W 118°07'1 0.1
2015-Mar-23 03:13N 33°35' W 118°08'11 6.1
2015-Mar-23 01:22N 33°44' W 118°16'3 1.6
2015-Mar-22 23:33N 33°42' W 118°14'8 8.3
2015-Mar-22 22:33N 33°35' W 118°08'0 0.0
2015-Mar-22 21:21N 33°35' W 118°08'  

Dump ship's entire track history